Time;durP1;ratioP1;P1;durP2;ratioP2;P2;SDS_P1;SDS_P2;PMS_P1;PMS_P2;Temp;Humidity;BMP_temperature;BMP_pressure;BME280_temperature;BME280_humidity;BME280_pressure;Samples;Min_cycle;Max_cycle;Signal;HPM_P1;HPM_P2
2020/12/13 00:01:12;;;;;;;20.20;6.85;;;;;;;7.33;100.00;100900.09;5094093;28;20122;-65
2020/12/13 00:03:37;;;;;;;12.23;1.75;;;;;;;7.45;100.00;100901.03;5093877;28;20442;-65
2020/12/13 00:06:03;;;;;;;10.48;1.50;;;;;;;7.72;100.00;100889.97;5093940;28;20063;-65
2020/12/13 00:08:29;;;;;;;16.33;1.50;;;;;;;8.00;100.00;100887.63;5093834;28;20044;-65
2020/12/13 00:10:57;;;;;;;15.73;1.05;;;;;;;8.27;100.00;100882.72;5093799;28;20032;-65
2020/12/13 00:13:23;;;;;;;18.17;1.45;;;;;;;8.49;100.00;100874.97;5093580;28;20123;-65
2020/12/13 00:15:50;;;;;;;7.90;1.10;;;;;;;8.66;100.00;100862.38;5093711;28;20422;-66
2020/12/13 00:18:15;;;;;;;7.70;1.13;;;;;;;8.82;100.00;100862.81;5093735;28;20039;-65
2020/12/13 00:20:41;;;;;;;16.38;1.92;;;;;;;8.92;100.00;100863.13;5093806;28;20028;-64
2020/12/13 00:23:07;;;;;;;14.00;2.38;;;;;;;9.00;100.00;100854.59;5093488;28;20074;-65
2020/12/13 00:25:32;;;;;;;13.73;1.38;;;;;;;9.06;100.00;100840.91;5093626;28;20039;-64
2020/12/13 00:27:58;;;;;;;17.55;1.60;;;;;;;9.14;100.00;100850.63;5093475;28;20040;-65
2020/12/13 00:30:24;;;;;;;11.05;1.88;;;;;;;9.18;100.00;100840.09;5093303;28;20043;-66
2020/12/13 00:32:49;;;;;;;13.35;1.15;;;;;;;9.24;100.00;100823.66;5093254;28;20119;-66
2020/12/13 00:35:15;;;;;;;10.40;1.77;;;;;;;9.27;100.00;100833.25;5093667;28;20039;-64
2020/12/13 00:37:41;;;;;;;17.23;2.78;;;;;;;9.32;100.00;100831.47;5093256;28;20173;-65
2020/12/13 00:40:07;;;;;;;12.95;1.30;;;;;;;9.36;100.00;100816.31;5093353;28;20036;-64
2020/12/13 00:42:32;;;;;;;9.90;1.20;;;;;;;9.35;100.00;100817.38;5092798;28;20519;-66
2020/12/13 00:44:58;;;;;;;10.52;1.83;;;;;;;9.34;100.00;100828.50;5093406;28;20051;-65
2020/12/13 00:47:24;;;;;;;11.43;1.70;;;;;;;9.32;100.00;100808.84;5093024;28;20504;-65
2020/12/13 00:49:49;;;;;;;12.43;1.00;;;;;;;9.34;100.00;100813.00;5093047;28;20037;-65
2020/12/13 00:52:15;;;;;;;10.30;1.23;;;;;;;9.33;100.00;100827.69;5093069;28;20040;-66
2020/12/13 00:54:40;;;;;;;7.68;1.00;;;;;;;9.32;100.00;100809.66;5092974;28;20043;-65
2020/12/13 00:57:06;;;;;;;8.85;1.13;;;;;;;9.32;100.00;100804.22;5092525;28;20032;-65
2020/12/13 00:59:31;;;;;;;11.90;1.38;;;;;;;9.34;100.00;100803.97;5092769;28;20039;-66
2020/12/13 01:01:57;;;;;;;10.20;1.02;;;;;;;9.33;100.00;100811.31;5092751;28;20050;-65
2020/12/13 01:04:23;;;;;;;9.32;1.15;;;;;;;9.32;100.00;100803.38;5092863;28;20039;-64
2020/12/13 01:06:49;;;;;;;11.07;1.25;;;;;;;9.33;100.00;100805.88;5092801;28;20042;-64
2020/12/13 01:09:15;;;;;;;16.38;1.83;;;;;;;9.37;100.00;100811.69;5092608;28;20040;-64
2020/12/13 01:11:41;;;;;;;16.27;2.30;;;;;;;9.41;100.00;100809.34;5092584;28;20040;-67
2020/12/13 01:14:06;;;;;;;14.13;1.67;;;;;;;9.43;100.00;100805.31;5092456;28;20040;-65
2020/12/13 01:16:32;;;;;;;10.38;1.77;;;;;;;9.44;100.00;100801.53;5092486;28;20035;-66
2020/12/13 01:18:59;;;;;;;20.13;2.58;;;;;;;9.43;100.00;100783.50;5092498;28;20389;-66
2020/12/13 01:21:27;;;;;;;11.52;1.92;;;;;;;9.43;100.00;100790.84;5091133;28;20119;-64
2020/12/13 01:23:54;;;;;;;12.27;1.30;;;;;;;9.47;100.00;100783.84;5092273;28;20067;-65
2020/12/13 01:26:21;;;;;;;12.88;1.58;;;;;;;9.48;100.00;100783.63;5092364;28;20466;-64
2020/12/13 01:28:47;;;;;;;12.95;1.90;;;;;;;9.47;100.00;100783.84;5092126;28;20032;-66
2020/12/13 01:31:16;;;;;;;16.30;1.20;;;;;;;9.47;100.00;100778.41;5092130;28;20078;-68
2020/12/13 01:33:43;;;;;;;9.13;1.50;;;;;;;9.48;100.00;100777.34;5092067;28;20024;-66
2020/12/13 01:36:16;;;;;;;11.38;1.30;;;;;;;9.47;100.00;100770.22;5092237;28;20113;-68
2020/12/13 01:38:42;;;;;;;10.93;1.70;;;;;;;9.47;100.00;100767.50;5091974;28;20123;-68
2020/12/13 01:41:08;;;;;;;18.52;2.03;;;;;;;9.48;100.00;100769.16;5092096;28;20119;-68
2020/12/13 01:43:34;;;;;;;11.60;1.80;;;;;;;9.49;100.00;100765.38;5092017;28;20066;-66
2020/12/13 01:46:00;;;;;;;16.55;1.73;;;;;;;9.49;100.00;100765.38;5092290;28;20483;-66
2020/12/13 01:48:27;;;;;;;14.13;2.35;;;;;;;9.47;100.00;100746.53;5091817;28;20169;-67
2020/12/13 01:51:34;;;;;;;15.75;2.75;;;;;;;9.49;100.00;100755.28;5092289;28;20462;-68
2020/12/13 01:53:48;;;;;;;16.10;1.85;;;;;;;9.49;100.00;100757.19;5090448;28;20494;-67
2020/12/13 01:56:15;;;;;;;21.80;2.95;;;;;;;9.51;100.00;100750.41;5091855;28;20631;-66
2020/12/13 01:58:42;;;;;;;18.15;2.00;;;;;;;9.51;100.00;100747.69;5091821;28;20450;-66
2020/12/13 02:01:09;;;;;;;11.95;2.30;;;;;;;9.53;100.00;100750.19;5091675;28;20039;-68
2020/12/13 02:03:45;;;;;;;14.77;1.95;;;;;;;9.54;100.00;100740.94;5091582;28;20552;-67
2020/12/13 02:06:17;;;;;;;21.60;2.17;;;;;;;9.57;100.00;100735.03;5091705;28;20046;-67
2020/12/13 02:08:43;;;;;;;16.38;2.22;;;;;;;9.57;100.00;100724.13;5090851;28;20044;-67
2020/12/13 02:11:10;;;;;;;20.55;2.63;;;;;;;9.60;100.00;100729.91;5091483;28;20033;-67
2020/12/13 02:13:37;;;;;;;18.23;2.15;;;;;;;9.64;100.00;100713.91;5091341;28;20478;-67
2020/12/13 02:16:03;;;;;;;16.83;1.95;;;;;;;9.64;100.00;100713.91;5091565;28;20035;-67
2020/12/13 02:18:29;;;;;;;17.15;2.17;;;;;;;9.66;100.00;100711.78;5091282;28;20039;-67
2020/12/13 02:20:56;;;;;;;20.30;1.83;;;;;;;9.66;100.00;100707.13;5091477;28;20038;-67
2020/12/13 02:23:22;;;;;;;14.38;2.05;;;;;;;9.64;100.00;100713.91;5091341;28;20093;-67
2020/12/13 02:25:48;;;;;;;12.27;2.00;;;;;;;9.65;100.00;100708.22;5091497;28;20040;-65
2020/12/13 02:28:14;;;;;;;18.40;2.03;;;;;;;9.68;100.00;100715.06;5091284;28;20119;-66
2020/12/13 02:30:40;;;;;;;21.40;2.45;;;;;;;9.68;100.00;100709.63;5091245;28;20067;-65
2020/12/13 02:33:06;;;;;;;15.95;1.60;;;;;;;9.69;100.00;100703.09;5091250;28;20036;-65
2020/12/13 02:35:33;;;;;;;13.50;1.80;;;;;;;9.69;100.00;100689.47;5091352;28;20042;-65
2020/12/13 02:37:58;;;;;;;18.33;2.03;;;;;;;9.69;100.00;100684.00;5091135;28;20032;-64
2020/12/13 02:40:24;;;;;;;23.85;2.88;;;;;;;9.71;100.00;100690.06;5091267;28;20503;-66
2020/12/13 02:42:50;;;;;;;18.55;1.75;;;;;;;9.72;100.00;100678.09;5091099;28;20052;-64
2020/12/13 02:45:16;;;;;;;31.23;2.90;;;;;;;9.74;100.00;100659.59;5091219;28;20035;-64
2020/12/13 02:47:41;;;;;;;21.42;2.28;;;;;;;9.75;100.00;100644.88;5091114;28;20124;-65
2020/12/13 02:50:07;;;;;;;25.88;2.80;;;;;;;9.77;100.00;100642.75;5091121;28;20040;-66
2020/12/13 02:52:33;;;;;;;22.60;2.97;;;;;;;9.77;100.00;100631.84;5091055;28;20032;-65
2020/12/13 02:54:59;;;;;;;18.05;3.03;;;;;;;9.78;100.00;100660.75;5091121;28;20078;-65
2020/12/13 02:57:24;;;;;;;17.40;2.03;;;;;;;9.74;100.00;100643.22;5090948;28;20028;-64
2020/12/13 02:59:50;;;;;;;22.10;2.88;;;;;;;9.70;100.00;100630.28;5091119;28;20410;-65
2020/12/13 03:02:15;;;;;;;22.80;2.45;;;;;;;9.70;100.00;100622.13;5091007;28;20482;-65
2020/12/13 03:04:41;;;;;;;20.08;2.35;;;;;;;9.71;100.00;100610.97;5090969;28;20055;-65
2020/12/13 03:07:09;;;;;;;24.23;2.88;;;;;;;9.75;100.00;100625.78;5091034;28;20035;-65
2020/12/13 03:09:36;;;;;;;23.58;2.65;;;;;;;9.79;100.00;100618.78;5090894;28;20126;-63
2020/12/13 03:12:01;;;;;;;22.67;2.78;;;;;;;9.79;100.00;100618.78;5090874;28;20048;-65
2020/12/13 03:14:27;;;;;;;22.10;2.58;;;;;;;9.82;100.00;100618.28;5090820;28;20097;-65
2020/12/13 03:16:53;;;;;;;29.63;2.63;;;;;;;9.82;100.00;100606.56;5090822;28;20097;-66
2020/12/13 03:19:18;;;;;;;23.73;2.30;;;;;;;9.85;100.00;100611.50;5092318;28;20088;-65
2020/12/13 03:21:44;;;;;;;19.35;2.78;;;;;;;9.85;100.00;100622.44;5094752;28;20040;-65
2020/12/13 03:24:11;;;;;;;36.42;3.35;;;;;;;9.87;100.00;100623.00;5094671;28;20424;-65
2020/12/13 03:26:36;;;;;;;28.25;3.13;;;;;;;9.87;100.00;100603.91;5094476;28;20040;-66
2020/12/13 03:29:02;;;;;;;34.13;4.35;;;;;;;9.88;100.00;100606.41;5094483;28;20512;-65
2020/12/13 03:31:28;;;;;;;23.30;2.95;;;;;;;9.89;100.00;100608.09;5094503;28;20489;-65
2020/12/13 03:33:54;;;;;;;20.45;2.58;;;;;;;9.90;100.00;100609.75;5093185;28;20118;-65
2020/12/13 03:36:19;;;;;;;17.80;2.20;;;;;;;9.92;100.00;100599.41;5093263;28;20420;-65
2020/12/13 03:38:45;;;;;;;19.70;3.00;;;;;;;9.94;100.00;100589.06;5094247;28;20084;-65
2020/12/13 03:41:10;;;;;;;24.77;3.03;;;;;;;9.95;100.00;100578.97;5094286;28;20080;-66
2020/12/13 03:43:36;;;;;;;17.50;2.55;;;;;;;9.93;100.00;100581.97;5093884;28;20494;-65
2020/12/13 03:46:02;;;;;;;18.15;2.55;;;;;;;9.90;100.00;100577.00;5094078;28;20398;-65
2020/12/13 03:48:27;;;;;;;24.13;2.85;;;;;;;9.88;100.00;100570.94;5094051;28;20036;-65
2020/12/13 03:50:53;;;;;;;31.52;3.05;;;;;;;9.88;100.00;100573.66;5093976;28;20495;-65
2020/12/13 03:53:19;;;;;;;34.63;3.97;;;;;;;9.88;100.00;100562.75;5093899;28;20043;-65
2020/12/13 03:55:45;;;;;;;30.08;4.55;;;;;;;9.89;100.00;100561.72;5093911;28;20062;-66
2020/12/13 03:58:10;;;;;;;30.98;3.33;;;;;;;9.89;100.00;100548.06;5093895;28;20470;-66
2020/12/13 04:00:36;;;;;;;27.40;3.25;;;;;;;9.92;100.00;100553.03;5093751;28;20123;-65
2020/12/13 04:03:04;;;;;;;26.55;3.55;;;;;;;9.94;100.00;100550.88;5093684;28;20047;-64
2020/12/13 04:05:31;;;;;;;24.27;3.85;;;;;;;9.95;100.00;100558.00;5093816;28;20036;-66
2020/12/13 04:07:57;;;;;;;25.52;3.88;;;;;;;9.95;100.00;100538.91;5093577;28;20546;-66
2020/12/13 04:10:23;;;;;;;23.65;2.10;;;;;;;9.97;100.00;100539.47;5093526;28;20146;-66
2020/12/13 04:12:48;;;;;;;19.92;2.63;;;;;;;9.96;100.00;100529.63;5093528;28;20040;-64
2020/12/13 04:15:14;;;;;;;19.70;2.70;;;;;;;9.96;100.00;100529.63;5093590;28;20040;-66
2020/12/13 04:17:40;;;;;;;22.63;2.63;;;;;;;9.97;100.00;100516.81;5093250;28;20036;-64
2020/12/13 04:20:07;;;;;;;29.83;3.13;;;;;;;10.00;100.00;100512.75;5093401;28;20024;-65
2020/12/13 04:22:33;;;;;;;30.70;3.22;;;;;;;9.98;100.00;100486.56;5093445;28;20032;-65
2020/12/13 04:24:59;;;;;;;25.95;3.78;;;;;;;10.00;100.00;100480.03;5093436;28;20450;-65
2020/12/13 04:27:25;;;;;;;25.05;3.53;;;;;;;10.00;100.00;100478.13;5093198;28;20043;-67
2020/12/13 04:29:51;;;;;;;33.10;4.47;;;;;;;10.00;100.00;100494.50;5093129;28;20040;-67
2020/12/13 04:32:16;;;;;;;43.78;4.10;;;;;;;10.00;100.00;100488.22;5092640;28;20633;-68
2020/12/13 04:34:42;;;;;;;27.90;2.60;;;;;;;9.98;100.00;100492.00;5093083;28;20036;-66
2020/12/13 04:37:08;;;;;;;29.33;3.00;;;;;;;9.95;100.00;100476.16;5093043;28;20458;-66
2020/12/13 04:39:34;;;;;;;23.70;2.92;;;;;;;9.97;100.00;100476.72;5093150;28;20153;-66
2020/12/13 04:42:01;;;;;;;24.35;2.90;;;;;;;9.95;100.00;100475.31;5092950;28;20036;-67
2020/12/13 04:44:28;;;;;;;17.98;2.95;;;;;;;9.91;100.00;100464.09;5092630;28;20091;-67
2020/12/13 04:46:54;;;;;;;21.52;2.65;;;;;;;9.89;100.00;100460.78;5092818;28;20119;-68
2020/12/13 04:49:23;;;;;;;24.73;3.22;;;;;;;9.90;100.00;100454.25;5092823;28;20136;-67
2020/12/13 04:51:50;;;;;;;20.85;2.40;;;;;;;9.89;100.00;100449.88;5092790;28;20038;-67
2020/12/13 04:54:20;;;;;;;23.95;2.72;;;;;;;9.89;100.00;100438.94;5091552;28;20155;-69
2020/12/13 04:56:49;;;;;;;21.70;1.98;;;;;;;9.91;100.00;100431.34;5092654;28;20496;-66
2020/12/13 04:59:15;;;;;;;17.00;2.17;;;;;;;9.93;100.00;100440.09;5092569;28;20032;-67
2020/12/13 05:01:42;;;;;;;25.13;2.55;;;;;;;9.96;100.00;100434.16;5092567;28;20387;-67
2020/12/13 05:04:08;;;;;;;20.08;2.88;;;;;;;9.99;100.00;100416.44;5092559;28;20035;-66
2020/12/13 05:06:35;;;;;;;16.17;2.13;;;;;;;10.01;100.00;100403.38;5092546;28;20510;-68
2020/12/13 05:09:04;;;;;;;30.77;2.90;;;;;;;10.04;100.00;100399.31;5092423;28;20493;-67
2020/12/13 05:11:29;;;;;;;23.17;3.35;;;;;;;10.04;100.00;100408.34;5092380;28;20028;-67
2020/12/13 05:13:55;;;;;;;21.80;2.05;;;;;;;10.06;100.00;100408.09;5092441;28;20500;-67
2020/12/13 05:16:22;;;;;;;30.85;3.90;;;;;;;10.08;100.00;100403.22;5092449;28;20537;-67
2020/12/13 05:18:47;;;;;;;30.80;2.92;;;;;;;10.07;100.00;100396.94;5092173;28;20093;-68
2020/12/13 05:21:19;;;;;;;20.23;2.88;;;;;;;10.08;100.00;100397.78;5092263;28;20059;-67
2020/12/13 05:23:47;;;;;;;28.00;3.10;;;;;;;10.08;100.00;100381.41;5090842;28;20043;-67
2020/12/13 05:26:14;;;;;;;23.13;2.17;;;;;;;10.08;100.00;100375.94;5092588;28;20115;-67
2020/12/13 05:28:46;;;;;;;25.85;3.40;;;;;;;10.08;100.00;100382.22;5092042;28;20067;-67
2020/12/13 05:31:15;;;;;;;21.50;3.45;;;;;;;10.08;100.00;100370.50;5092090;28;20059;-67
2020/12/13 05:34:02;;;;;;;32.40;3.60;;;;;;;10.09;100.00;100361.22;5106705;28;20101;-66
2020/12/13 05:36:34;;;;;;;27.70;3.15;;;;;;;10.11;100.00;100364.53;5091897;28;20044;-68
2020/12/13 05:38:59;;;;;;;22.35;2.53;;;;;;;10.13;100.00;100349.53;5091956;28;20390;-67
2020/12/13 05:41:31;;;;;;;27.20;3.05;;;;;;;10.14;100.00;100358.56;5091773;28;20024;-68
2020/12/13 05:51:40;;;;;;;;;;;;;;;10.16;100.00;100350.94;5092166;28;20032;-68
2020/12/13 05:54:24;;;;;;;24.33;3.17;;;;;;;10.19;100.00;100336.78;5091512;28;19916;-67
2020/12/13 05:57:00;;;;;;;27.17;2.28;;;;;;;10.20;100.00;100339.25;5091726;28;20466;-66
2020/12/13 05:59:28;;;;;;;24.85;3.65;;;;;;;10.21;100.00;100331.94;5091519;28;20493;-67
2020/12/13 06:01:56;;;;;;;23.13;4.00;;;;;;;10.24;100.00;100336.91;5090153;28;20065;-67
2020/12/13 06:04:27;;;;;;;26.98;3.17;;;;;;;10.27;100.00;100326.31;5091528;28;20612;-67
2020/12/13 06:07:02;;;;;;;24.27;3.17;;;;;;;10.31;100.00;100321.16;5091375;28;20053;-68
2020/12/13 06:09:35;;;;;;;22.65;3.08;;;;;;;10.32;100.00;100309.16;5091263;28;20039;-68
2020/12/13 06:12:04;;;;;;;27.67;2.72;;;;;;;10.35;100.00;100295.00;5091286;28;20040;-66
2020/12/13 06:14:31;;;;;;;33.15;3.35;;;;;;;10.37;100.00;100284.66;5091385;28;20066;-66
2020/12/13 06:17:00;;;;;;;24.58;3.25;;;;;;;10.38;100.00;100278.13;5091305;28;20039;-68
2020/12/13 06:19:27;;;;;;;28.20;3.83;;;;;;;10.39;100.00;100274.31;5091254;28;20036;-67
2020/12/13 06:21:58;;;;;;;21.63;3.00;;;;;;;10.42;100.00;100268.34;5090145;28;20066;-68
2020/12/13 06:24:24;;;;;;;18.58;2.33;;;;;;;10.44;100.00;100266.19;5091140;28;20047;-67
2020/12/13 06:26:51;;;;;;;16.73;3.70;;;;;;;10.44;100.00;100268.91;5091142;28;20394;-67
2020/12/13 06:29:22;;;;;;;32.33;3.42;;;;;;;10.47;100.00;100260.22;5091141;28;20112;-67
2020/12/13 06:31:51;;;;;;;28.20;2.90;;;;;;;10.51;100.00;100260.53;5091295;28;20039;-68
2020/12/13 06:34:17;;;;;;;22.70;2.72;;;;;;;10.53;100.00;100259.19;5091097;28;20375;-68
2020/12/13 06:36:43;;;;;;;21.33;2.75;;;;;;;10.55;100.00;100262.47;5091391;28;20042;-67
2020/12/13 06:39:17;;;;;;;19.42;2.92;;;;;;;10.57;100.00;100257.59;5091157;28;20394;-67
2020/12/13 06:41:48;;;;;;;21.10;2.78;;;;;;;10.60;100.00;100255.44;5091541;28;20032;-67
2020/12/13 06:44:15;;;;;;;22.33;2.35;;;;;;;10.63;100.00;100242.09;5090976;28;20150;-67
2020/12/13 06:46:45;;;;;;;20.05;2.35;;;;;;;10.64;100.00;100232.00;5091086;28;20044;-68
2020/12/13 06:49:13;;;;;;;22.60;2.35;;;;;;;10.65;100.00;100239.09;5091079;28;20073;-67
2020/12/13 06:51:41;;;;;;;20.98;1.77;;;;;;;10.67;100.00;100226.00;5090962;28;20035;-67
2020/12/13 06:54:18;;;;;;;25.80;1.98;;;;;;;10.69;100.00;100224.66;5091652;28;20040;-67
2020/12/13 06:56:45;;;;;;;31.70;4.68;;;;;;;10.73;100.00;100224.97;5094969;28;20046;-67
2020/12/13 06:59:11;;;;;;;21.05;2.70;;;;;;;10.74;100.00;100221.16;5094942;28;20043;-67
2020/12/13 07:01:39;;;;;;;21.20;2.10;;;;;;;10.76;100.00;100230.78;5095397;28;20063;-67
2020/12/13 07:04:36;;;;;;;26.65;2.90;;;;;;;10.79;100.00;100224.78;5094884;28;20059;-66
2020/12/13 07:09:31;;;;;;;20.90;2.45;;;;;;;10.85;100.00;100201.06;5035265;28;20427;-67
2020/12/13 07:11:58;;;;;;;22.63;2.92;;;;;;;10.88;100.00;100211.47;5087698;28;20094;-66
2020/12/13 07:14:26;;;;;;;23.30;2.72;;;;;;;10.91;100.00;100193.72;5094610;28;20478;-68
2020/12/13 07:17:02;;;;;;;25.50;3.40;;;;;;;10.92;100.00;100198.91;5094547;28;20158;-65
2020/12/13 07:19:30;;;;;;;24.58;2.97;;;;;;;10.95;100.00;100179.31;5094655;28;20496;-66
2020/12/13 07:22:05;;;;;;;36.33;2.60;;;;;;;11.00;100.00;100175.78;5094703;28;20474;-65
2020/12/13 07:24:31;;;;;;;33.38;2.63;;;;;;;11.01;100.00;100178.25;5094404;28;20523;-65
2020/12/13 07:26:58;;;;;;;38.85;2.53;;;;;;;11.04;100.00;100177.72;5094367;28;20028;-65
2020/12/13 07:29:24;;;;;;;30.20;3.45;;;;;;;11.10;100.00;100175.84;5094453;28;20128;-66
2020/12/13 07:31:51;;;;;;;38.47;3.58;;;;;;;11.12;100.00;100169.06;5094452;28;20070;-67
2020/12/13 07:34:17;;;;;;;43.97;4.32;;;;;;;11.17;100.00;100160.88;5094373;28;20482;-64
2020/12/13 07:36:43;;;;;;;44.63;4.75;;;;;;;11.23;100.00;100158.16;5094256;28;20109;-65
2020/12/13 07:39:13;;;;;;;44.05;4.90;;;;;;;11.28;100.00;100156.31;5094315;28;20493;-65
2020/12/13 07:41:40;;;;;;;56.25;6.05;;;;;;;11.32;100.00;100153.88;5094098;28;20046;-65
2020/12/13 07:44:12;;;;;;;70.10;6.75;;;;;;;11.37;100.00;100159.34;5093981;28;20087;-67
2020/12/13 07:46:39;;;;;;;46.17;6.18;;;;;;;11.39;100.00;100146.25;5094218;28;20032;-67
2020/12/13 07:49:16;;;;;;;55.30;6.47;;;;;;;11.46;100.00;100152.31;5092745;28;20536;-67
2020/12/13 07:51:44;;;;;;;74.15;8.40;;;;;;;11.50;100.00;100153.44;5094056;28;20044;-69
2020/12/13 07:54:29;;;;;;;65.63;7.80;;;;;;;11.62;100.00;100151.28;5093910;28;20496;-67
2020/12/13 07:56:57;;;;;;;61.03;6.80;;;;;;;11.65;100.00;100144.50;5093998;28;20039;-65
2020/12/13 07:59:28;;;;;;;73.50;8.57;;;;;;;11.68;100.00;100133.81;5093850;28;20047;-66
2020/12/13 08:01:55;;;;;;;64.32;7.05;;;;;;;11.71;100.00;100144.22;5094005;28;20067;-65
2020/12/13 08:04:36;;;;;;;59.28;7.53;;;;;;;11.73;100.00;100147.53;5093651;28;20434;-66
2020/12/13 08:07:04;;;;;;;67.60;8.13;;;;;;;11.73;100.00;100136.56;5092599;28;20119;-65
2020/12/13 08:09:30;;;;;;;70.55;9.52;;;;;;;11.75;100.00;100136.31;5093626;28;20403;-65
2020/12/13 08:11:56;;;;;;;73.45;6.75;;;;;;;11.76;100.00;100141.50;5093770;28;20040;-65
2020/12/13 08:14:23;;;;;;;61.05;6.97;;;;;;;11.77;100.00;100132.22;5093645;28;20071;-65
2020/12/13 08:16:53;;;;;;;64.88;7.22;;;;;;;11.77;100.00;100126.75;5093506;28;20039;-66
2020/12/13 08:19:43;;;;;;;71.43;8.82;;;;;;;11.78;100.00;100136.63;5093585;28;20062;-65
2020/12/13 08:22:22;;;;;;;68.47;8.85;;;;;;;11.81;100.00;100115.31;5050687;28;20556;-67
2020/12/13 08:25:10;;;;;;;67.90;7.63;;;;;;;11.82;100.00;100133.38;5091185;28;20403;-65
2020/12/13 08:27:39;;;;;;;76.10;9.23;;;;;;;11.84;100.00;100147.59;5093294;28;20057;-65
2020/12/13 08:30:06;;;;;;;77.78;9.65;;;;;;;11.85;100.00;100139.13;5093282;28;20070;-65
2020/12/13 08:32:34;;;;;;;54.25;7.25;;;;;;;11.87;100.00;100130.66;5091712;28;20040;-66
2020/12/13 08:35:18;;;;;;;86.47;9.13;;;;;;;11.89;100.00;100117.53;5093296;28;20134;-66
2020/12/13 08:37:53;;;;;;;56.97;6.10;;;;;;;11.91;100.00;100120.81;5093038;28;20040;-65
2020/12/13 08:40:32;;;;;;;61.45;7.90;;;;;;;11.91;100.00;100109.88;5093123;28;20028;-65
2020/12/13 08:42:58;;;;;;;61.83;7.65;;;;;;;11.92;100.00;100101.38;5092820;28;20077;-66
2020/12/13 08:45:24;;;;;;;75.97;7.10;;;;;;;11.95;100.00;100103.56;5093096;28;20047;-65
2020/12/13 08:47:51;;;;;;;70.20;7.82;;;;;;;11.98;100.00;100099.50;5092924;28;20126;-64
2020/12/13 08:50:19;;;;;;;61.10;7.03;;;;;;;12.02;100.00;100089.66;5092763;28;20054;-66
2020/12/13 08:52:45;;;;;;;63.25;7.60;;;;;;;12.07;100.00;100100.59;5093130;28;20122;-66
2020/12/13 08:55:11;;;;;;;67.75;7.38;;;;;;;12.10;100.00;100091.03;5092819;28;20450;-66
2020/12/13 08:57:45;;;;;;;70.85;7.32;;;;;;;12.13;100.00;100094.03;5092693;28;20040;-65
2020/12/13 09:00:13;;;;;;;75.05;8.38;;;;;;;12.12;100.00;100092.41;5092817;28;20093;-65
2020/12/13 09:02:39;;;;;;;79.38;7.88;;;;;;;12.11;100.00;100093.50;5092696;28;20051;-65
2020/12/13 09:05:06;;;;;;;66.60;8.55;;;;;;;12.09;100.00;100095.69;5092634;28;20450;-66
2020/12/13 09:07:32;;;;;;;74.93;8.05;;;;;;;12.07;100.00;100103.34;5092657;28;20519;-66
2020/12/13 09:10:13;;;;;;;72.57;8.13;;;;;;;12.05;100.00;100094.59;5092556;28;20032;-65
2020/12/13 09:12:41;;;;;;;70.63;8.25;;;;;;;12.03;100.00;100086.66;5092389;28;20196;-65
2020/12/13 09:15:12;;;;;;;56.35;7.00;;;;;;;12.03;100.00;100080.34;5092536;28;20055;-65
2020/12/13 09:17:39;;;;;;;64.53;8.38;;;;;;;12.01;100.00;100083.34;5092183;28;20032;-66
2020/12/13 09:20:06;;;;;;;64.85;8.30;;;;;;;12.02;100.00;100089.66;5092547;28;20027;-67
2020/12/13 09:22:31;;;;;;;72.18;7.78;;;;;;;12.01;100.00;100088.84;5092346;28;20035;-68
2020/12/13 09:24:58;;;;;;;71.15;7.70;;;;;;;12.03;100.00;100091.28;5092504;28;20063;-67
2020/12/13 09:27:25;;;;;;;57.65;7.82;;;;;;;12.02;100.00;100095.13;5092257;28;20062;-65
2020/12/13 09:29:51;;;;;;;54.00;7.15;;;;;;;12.03;100.00;100089.38;5092129;28;20032;-65
2020/12/13 09:32:20;;;;;;;51.47;7.63;;;;;;;12.03;100.00;100091.28;5092158;28;20039;-67
2020/12/13 09:34:46;;;;;;;51.15;5.40;;;;;;;12.04;100.00;100088.28;5092131;28;20478;-67
2020/12/13 09:37:14;;;;;;;55.70;6.07;;;;;;;12.06;100.00;100090.75;5092130;28;20089;-67
2020/12/13 09:39:40;;;;;;;52.60;6.25;;;;;;;12.06;100.00;100085.28;5092221;28;20043;-66
2020/12/13 09:42:06;;;;;;;50.50;5.10;;;;;;;12.08;100.00;100072.13;5092049;28;20032;-65
2020/12/13 09:44:32;;;;;;;56.35;6.45;;;;;;;12.09;100.00;100087.47;5091629;28;20052;-65
2020/12/13 09:47:00;;;;;;;45.60;6.88;;;;;;;12.10;100.00;100078.16;5091893;28;20047;-65
2020/12/13 09:49:30;;;;;;;40.95;5.47;;;;;;;12.12;100.00;100075.97;5091780;28;20036;-67
2020/12/13 09:52:00;;;;;;;50.20;6.13;;;;;;;12.12;100.00;100062.28;5091892;28;20517;-66
2020/12/13 09:54:26;;;;;;;44.17;5.70;;;;;;;12.11;100.00;100071.59;5092021;28;20122;-67
2020/12/13 09:56:52;;;;;;;37.83;5.15;;;;;;;12.11;100.00;100071.59;5091779;28;20552;-66
2020/12/13 09:59:19;;;;;;;42.00;5.50;;;;;;;12.10;100.00;100064.47;5091805;28;20155;-65
2020/12/13 10:01:44;;;;;;;41.60;6.30;;;;;;;12.11;100.00;100055.16;5091670;28;20048;-66
2020/12/13 10:04:10;;;;;;;42.67;5.97;;;;;;;12.12;100.00;100056.81;5091777;28;20039;-67
2020/12/13 10:06:51;;;;;;;50.70;6.35;;;;;;;12.12;100.00;100056.81;5090185;28;20047;-65
2020/12/13 10:09:17;;;;;;;50.72;6.30;;;;;;;12.15;100.00;100050.81;5092129;28;20106;-65
2020/12/13 10:11:44;;;;;;;57.08;7.15;;;;;;;12.19;100.00;100040.97;5091540;28;20142;-65
2020/12/13 10:14:11;;;;;;;57.17;6.70;;;;;;;12.21;100.00;100046.97;5091470;28;20386;-66
2020/12/13 10:16:42;;;;;;;61.90;8.32;;;;;;;12.20;100.00;100037.13;5090301;28;20485;-65
2020/12/13 10:19:07;;;;;;;62.95;7.28;;;;;;;12.20;100.00;100026.19;5091534;28;20036;-65
2020/12/13 10:21:34;;;;;;;55.60;7.18;;;;;;;12.16;100.00;100019.59;5091362;28;20381;-66
2020/12/13 10:24:00;;;;;;;57.97;6.97;;;;;;;12.16;100.00;100018.78;5091235;28;20085;-65
2020/12/13 10:26:31;;;;;;;52.58;7.03;;;;;;;12.14;100.00;100010.81;5091349;28;20036;-65
2020/12/13 10:28:58;;;;;;;48.45;6.40;;;;;;;12.12;100.00;100002.06;5090973;28;20066;-67
2020/12/13 10:31:31;;;;;;;52.35;6.25;;;;;;;12.12;100.00;99996.59;5091218;28;20044;-67
2020/12/13 10:33:58;;;;;;;57.20;6.32;;;;;;;12.10;100.00;100009.72;5091297;28;20501;-68
2020/12/13 10:36:24;;;;;;;60.58;6.03;;;;;;;12.09;100.00;99997.16;5091172;28;20551;-65
2020/12/13 10:38:51;;;;;;;64.63;7.53;;;;;;;12.09;100.00;100013.56;5090916;28;20055;-65
2020/12/13 10:41:19;;;;;;;64.57;6.75;;;;;;;12.08;100.00;100009.19;5091211;28;20045;-65
2020/12/13 10:43:45;;;;;;;48.67;5.72;;;;;;;12.10;100.00;100008.91;5090860;28;20174;-66
2020/12/13 10:46:11;;;;;;;43.75;5.63;;;;;;;12.09;100.00;99999.88;5091034;28;20123;-65
2020/12/13 10:48:36;;;;;;;45.80;6.03;;;;;;;12.10;100.00;99998.78;5090850;28;20490;-66
2020/12/13 10:51:02;;;;;;;54.20;6.57;;;;;;;12.11;100.00;99994.94;5090837;28;20133;-66
2020/12/13 10:53:28;;;;;;;45.40;5.57;;;;;;;12.14;100.00;99999.06;5090768;28;20063;-65
2020/12/13 10:55:54;;;;;;;58.90;6.30;;;;;;;12.13;100.00;99987.28;5090762;28;20062;-65
2020/12/13 10:58:20;;;;;;;49.45;6.03;;;;;;;12.14;100.00;99972.50;5090669;28;20039;-68
2020/12/13 11:00:47;;;;;;;36.22;4.88;;;;;;;12.15;100.00;99996.06;5090800;28;20047;-67
2020/12/13 11:03:14;;;;;;;42.20;5.22;;;;;;;12.18;100.00;99979.09;5090843;28;20040;-67
2020/12/13 11:05:41;;;;;;;31.73;4.82;;;;;;;12.18;100.00;99967.31;5091340;28;20111;-66
2020/12/13 11:08:07;;;;;;;37.30;5.38;;;;;;;12.20;100.00;99960.47;5090676;28;20033;-67
2020/12/13 11:10:33;;;;;;;53.33;6.20;;;;;;;12.19;100.00;99969.78;5090610;28;20313;-68
2020/12/13 11:13:02;;;;;;;46.70;5.68;;;;;;;12.19;100.00;99964.31;5090476;28;20040;-67
2020/12/13 11:15:28;;;;;;;35.92;4.28;;;;;;;12.20;100.00;99960.47;5090959;28;20043;-69
2020/12/13 11:17:54;;;;;;;38.47;4.82;;;;;;;12.19;100.00;99947.88;5090648;28;20036;-68
2020/12/13 11:20:19;;;;;;;39.25;4.60;;;;;;;12.19;100.00;99947.88;5090656;28;20036;-66
2020/12/13 11:22:45;;;;;;;41.85;5.93;;;;;;;12.21;100.00;99942.94;5091125;28;20374;-66
2020/12/13 11:25:11;;;;;;;38.75;5.63;;;;;;;12.22;100.00;99951.97;5090580;28;20409;-67
2020/12/13 11:27:37;;;;;;;39.03;4.93;;;;;;;12.23;100.00;99943.50;5090438;28;20119;-68